sensor_id;sensor_type;location;lat;lon;timestamp;temperature;humidity
60033;DHT22;45905;50.570;10.428;2023-04-03T00:01:11;3.10;99.90
60033;DHT22;45905;50.570;10.428;2023-04-03T00:03:39;3.00;99.90
60033;DHT22;45905;50.570;10.428;2023-04-03T00:06:08;3.00;99.90
60033;DHT22;45905;50.570;10.428;2023-04-03T00:08:38;3.00;99.90
60033;DHT22;45905;50.570;10.428;2023-04-03T00:11:07;3.00;99.90
60033;DHT22;45905;50.570;10.428;2023-04-03T00:13:36;2.90;99.90
60033;DHT22;45905;50.570;10.428;2023-04-03T00:16:04;2.90;99.90
60033;DHT22;45905;50.570;10.428;2023-04-03T00:18:32;2.90;99.90
60033;DHT22;45905;50.570;10.428;2023-04-03T00:20:59;2.90;99.90
60033;DHT22;45905;50.570;10.428;2023-04-03T00:23:26;2.80;99.90
60033;DHT22;45905;50.570;10.428;2023-04-03T00:25:54;2.80;99.90
60033;DHT22;45905;50.570;10.428;2023-04-03T00:28:22;2.80;99.90
60033;DHT22;45905;50.570;10.428;2023-04-03T00:30:49;2.80;99.90
60033;DHT22;45905;50.570;10.428;2023-04-03T00:33:17;2.70;99.90
60033;DHT22;45905;50.570;10.428;2023-04-03T00:35:48;2.70;99.90
60033;DHT22;45905;50.570;10.428;2023-04-03T00:38:17;2.70;99.90
60033;DHT22;45905;50.570;10.428;2023-04-03T00:40:46;2.60;99.90
60033;DHT22;45905;50.570;10.428;2023-04-03T00:43:23;2.70;99.90
60033;DHT22;45905;50.570;10.428;2023-04-03T00:45:53;2.60;99.90
60033;DHT22;45905;50.570;10.428;2023-04-03T00:48:42;2.60;99.90
60033;DHT22;45905;50.570;10.428;2023-04-03T00:51:30;2.60;99.90
60033;DHT22;45905;50.570;10.428;2023-04-03T00:54:03;2.50;99.90
60033;DHT22;45905;50.570;10.428;2023-04-03T00:56:33;2.50;99.90
60033;DHT22;45905;50.570;10.428;2023-04-03T00:59:12;2.50;99.90
60033;DHT22;45905;50.570;10.428;2023-04-03T01:01:49;2.50;99.90
60033;DHT22;45905;50.570;10.428;2023-04-03T01:04:38;2.50;99.90
60033;DHT22;45905;50.570;10.428;2023-04-03T01:07:29;2.50;99.90
60033;DHT22;45905;50.570;10.428;2023-04-03T01:10:01;2.50;99.90
60033;DHT22;45905;50.570;10.428;2023-04-03T01:12:37;2.50;99.90
60033;DHT22;45905;50.570;10.428;2023-04-03T01:15:15;2.50;99.90
60033;DHT22;45905;50.570;10.428;2023-04-03T01:17:52;2.50;99.90
60033;DHT22;45905;50.570;10.428;2023-04-03T01:23:39;2.50;99.90
60033;DHT22;45905;50.570;10.428;2023-04-03T01:26:17;2.50;99.90
60033;DHT22;45905;50.570;10.428;2023-04-03T01:28:44;2.40;99.90
60033;DHT22;45905;50.570;10.428;2023-04-03T01:34:13;2.50;99.90
60033;DHT22;45905;50.570;10.428;2023-04-03T01:36:40;2.40;99.90
60033;DHT22;45905;50.570;10.428;2023-04-03T01:39:08;2.40;99.90
60033;DHT22;45905;50.570;10.428;2023-04-03T01:41:36;2.40;99.90
60033;DHT22;45905;50.570;10.428;2023-04-03T01:44:29;2.30;99.90
60033;DHT22;45905;50.570;10.428;2023-04-03T01:46:57;2.30;99.90
60033;DHT22;45905;50.570;10.428;2023-04-03T01:49:26;2.30;99.90
60033;DHT22;45905;50.570;10.428;2023-04-03T01:51:53;2.20;99.90
60033;DHT22;45905;50.570;10.428;2023-04-03T01:54:21;2.20;99.90
60033;DHT22;45905;50.570;10.428;2023-04-03T01:56:48;2.10;99.90
60033;DHT22;45905;50.570;10.428;2023-04-03T01:59:16;2.20;99.90
60033;DHT22;45905;50.570;10.428;2023-04-03T02:01:44;2.10;99.90
60033;DHT22;45905;50.570;10.428;2023-04-03T02:04:12;2.10;99.90
60033;DHT22;45905;50.570;10.428;2023-04-03T02:06:40;2.00;99.90
60033;DHT22;45905;50.570;10.428;2023-04-03T02:09:07;2.00;99.90
60033;DHT22;45905;50.570;10.428;2023-04-03T02:11:34;1.90;99.90
60033;DHT22;45905;50.570;10.428;2023-04-03T02:14:02;1.90;99.90
60033;DHT22;45905;50.570;10.428;2023-04-03T02:16:29;1.90;99.90
60033;DHT22;45905;50.570;10.428;2023-04-03T02:18:57;1.80;99.90
60033;DHT22;45905;50.570;10.428;2023-04-03T02:21:26;1.70;99.90
60033;DHT22;45905;50.570;10.428;2023-04-03T02:23:53;1.70;99.90
60033;DHT22;45905;50.570;10.428;2023-04-03T02:26:20;1.70;99.90
60033;DHT22;45905;50.570;10.428;2023-04-03T02:28:47;1.70;99.90
60033;DHT22;45905;50.570;10.428;2023-04-03T02:31:15;1.60;99.90
60033;DHT22;45905;50.570;10.428;2023-04-03T02:33:44;1.60;99.90
60033;DHT22;45905;50.570;10.428;2023-04-03T02:36:14;1.70;99.90
60033;DHT22;45905;50.570;10.428;2023-04-03T02:38:44;1.60;99.90
60033;DHT22;45905;50.570;10.428;2023-04-03T02:41:13;1.70;99.90
60033;DHT22;45905;50.570;10.428;2023-04-03T02:43:40;1.60;99.90
60033;DHT22;45905;50.570;10.428;2023-04-03T02:46:07;1.80;99.90
60033;DHT22;45905;50.570;10.428;2023-04-03T02:48:36;1.70;99.90
60033;DHT22;45905;50.570;10.428;2023-04-03T02:51:03;1.70;99.90
60033;DHT22;45905;50.570;10.428;2023-04-03T02:53:31;1.60;99.90
60033;DHT22;45905;50.570;10.428;2023-04-03T02:56:03;1.90;99.90
60033;DHT22;45905;50.570;10.428;2023-04-03T02:58:30;1.60;99.90
60033;DHT22;45905;50.570;10.428;2023-04-03T03:00:59;1.70;99.90
60033;DHT22;45905;50.570;10.428;2023-04-03T03:03:27;1.60;99.90
60033;DHT22;45905;50.570;10.428;2023-04-03T03:06:12;1.70;99.90
60033;DHT22;45905;50.570;10.428;2023-04-03T03:08:41;1.60;99.90
60033;DHT22;45905;50.570;10.428;2023-04-03T03:11:09;1.60;99.90
60033;DHT22;45905;50.570;10.428;2023-04-03T03:13:37;1.60;99.90
60033;DHT22;45905;50.570;10.428;2023-04-03T03:16:05;1.70;99.90
60033;DHT22;45905;50.570;10.428;2023-04-03T03:18:34;1.70;99.90
60033;DHT22;45905;50.570;10.428;2023-04-03T03:21:03;1.70;99.90
60033;DHT22;45905;50.570;10.428;2023-04-03T03:23:31;1.70;99.90
60033;DHT22;45905;50.570;10.428;2023-04-03T03:26:02;1.70;99.90
60033;DHT22;45905;50.570;10.428;2023-04-03T03:28:34;1.80;99.90
60033;DHT22;45905;50.570;10.428;2023-04-03T03:31:05;1.70;99.90
60033;DHT22;45905;50.570;10.428;2023-04-03T03:33:34;1.70;99.90
60033;DHT22;45905;50.570;10.428;2023-04-03T03:36:01;1.70;99.90
60033;DHT22;45905;50.570;10.428;2023-04-03T03:38:28;1.70;99.90
60033;DHT22;45905;50.570;10.428;2023-04-03T03:40:57;1.70;99.90
60033;DHT22;45905;50.570;10.428;2023-04-03T03:43:25;1.70;99.90
60033;DHT22;45905;50.570;10.428;2023-04-03T03:45:53;1.70;99.90
60033;DHT22;45905;50.570;10.428;2023-04-03T03:48:23;1.70;99.90
60033;DHT22;45905;50.570;10.428;2023-04-03T03:50:50;1.70;99.90
60033;DHT22;45905;50.570;10.428;2023-04-03T03:53:20;1.60;99.90
60033;DHT22;45905;50.570;10.428;2023-04-03T03:55:51;1.60;99.90
60033;DHT22;45905;50.570;10.428;2023-04-03T03:58:20;1.60;99.90
60033;DHT22;45905;50.570;10.428;2023-04-03T04:00:47;1.60;99.90
60033;DHT22;45905;50.570;10.428;2023-04-03T04:03:15;1.60;99.90
60033;DHT22;45905;50.570;10.428;2023-04-03T04:05:45;1.60;99.90
60033;DHT22;45905;50.570;10.428;2023-04-03T04:08:13;1.60;99.90
60033;DHT22;45905;50.570;10.428;2023-04-03T04:10:40;1.60;99.90
60033;DHT22;45905;50.570;10.428;2023-04-03T04:13:08;1.60;99.90
60033;DHT22;45905;50.570;10.428;2023-04-03T04:15:35;1.60;99.90
60033;DHT22;45905;50.570;10.428;2023-04-03T04:18:03;1.60;99.90
60033;DHT22;45905;50.570;10.428;2023-04-03T04:20:31;1.60;99.90
60033;DHT22;45905;50.570;10.428;2023-04-03T04:22:59;1.80;99.90
60033;DHT22;45905;50.570;10.428;2023-04-03T04:25:26;1.50;99.90
60033;DHT22;45905;50.570;10.428;2023-04-03T04:27:54;1.50;99.90
60033;DHT22;45905;50.570;10.428;2023-04-03T04:30:21;1.40;99.90
60033;DHT22;45905;50.570;10.428;2023-04-03T04:32:49;1.30;99.90
60033;DHT22;45905;50.570;10.428;2023-04-03T04:35:17;1.40;99.90
60033;DHT22;45905;50.570;10.428;2023-04-03T04:37:47;1.40;99.90
60033;DHT22;45905;50.570;10.428;2023-04-03T04:40:14;1.60;99.90
60033;DHT22;45905;50.570;10.428;2023-04-03T04:42:42;1.30;99.90
60033;DHT22;45905;50.570;10.428;2023-04-03T04:45:10;1.40;99.90
60033;DHT22;45905;50.570;10.428;2023-04-03T04:47:39;1.20;99.90
60033;DHT22;45905;50.570;10.428;2023-04-03T04:50:07;1.20;99.90
60033;DHT22;45905;50.570;10.428;2023-04-03T04:52:34;1.10;99.90
60033;DHT22;45905;50.570;10.428;2023-04-03T04:55:02;1.00;99.90
60033;DHT22;45905;50.570;10.428;2023-04-03T04:57:29;0.90;99.90
60033;DHT22;45905;50.570;10.428;2023-04-03T04:59:58;0.90;99.90
60033;DHT22;45905;50.570;10.428;2023-04-03T05:02:26;0.80;99.90
60033;DHT22;45905;50.570;10.428;2023-04-03T05:04:54;1.10;99.90
60033;DHT22;45905;50.570;10.428;2023-04-03T05:07:26;1.80;99.90
60033;DHT22;45905;50.570;10.428;2023-04-03T05:09:53;0.70;99.90
60033;DHT22;45905;50.570;10.428;2023-04-03T05:12:21;0.80;99.90
60033;DHT22;45905;50.570;10.428;2023-04-03T05:14:54;0.70;99.90
60033;DHT22;45905;50.570;10.428;2023-04-03T05:17:22;0.70;99.90
60033;DHT22;45905;50.570;10.428;2023-04-03T05:19:52;0.70;99.90
60033;DHT22;45905;50.570;10.428;2023-04-03T05:22:21;0.80;99.90
60033;DHT22;45905;50.570;10.428;2023-04-03T05:24:50;0.60;99.90
60033;DHT22;45905;50.570;10.428;2023-04-03T05:27:19;0.60;99.90
60033;DHT22;45905;50.570;10.428;2023-04-03T05:29:52;0.60;99.90
60033;DHT22;45905;50.570;10.428;2023-04-03T05:32:22;0.60;99.90
60033;DHT22;45905;50.570;10.428;2023-04-03T05:34:59;0.70;99.90
60033;DHT22;45905;50.570;10.428;2023-04-03T05:37:27;0.70;99.90
60033;DHT22;45905;50.570;10.428;2023-04-03T05:39:56;0.60;99.90
60033;DHT22;45905;50.570;10.428;2023-04-03T05:42:23;0.60;99.90
60033;DHT22;45905;50.570;10.428;2023-04-03T05:44:51;0.70;99.90
60033;DHT22;45905;50.570;10.428;2023-04-03T05:47:19;0.70;99.90
60033;DHT22;45905;50.570;10.428;2023-04-03T05:49:46;0.70;99.90
60033;DHT22;45905;50.570;10.428;2023-04-03T05:52:28;0.70;99.90
60033;DHT22;45905;50.570;10.428;2023-04-03T05:54:58;0.70;99.90
60033;DHT22;45905;50.570;10.428;2023-04-03T05:57:27;0.70;99.90
60033;DHT22;45905;50.570;10.428;2023-04-03T05:59:55;0.80;99.90
60033;DHT22;45905;50.570;10.428;2023-04-03T06:02:23;0.70;99.90
60033;DHT22;45905;50.570;10.428;2023-04-03T06:04:52;0.70;99.90
60033;DHT22;45905;50.570;10.428;2023-04-03T06:07:21;0.80;99.90
60033;DHT22;45905;50.570;10.428;2023-04-03T06:09:50;1.20;99.90
60033;DHT22;45905;50.570;10.428;2023-04-03T06:12:19;0.80;99.90
60033;DHT22;45905;50.570;10.428;2023-04-03T06:14:46;1.40;99.90
60033;DHT22;45905;50.570;10.428;2023-04-03T06:17:15;0.80;99.90
60033;DHT22;45905;50.570;10.428;2023-04-03T06:19:45;0.70;99.90
60033;DHT22;45905;50.570;10.428;2023-04-03T06:22:13;0.80;99.90
60033;DHT22;45905;50.570;10.428;2023-04-03T06:24:40;0.80;99.90
60033;DHT22;45905;50.570;10.428;2023-04-03T06:27:09;0.80;99.90
60033;DHT22;45905;50.570;10.428;2023-04-03T06:29:38;0.80;99.90
60033;DHT22;45905;50.570;10.428;2023-04-03T06:32:05;0.80;99.90
60033;DHT22;45905;50.570;10.428;2023-04-03T06:34:32;0.80;99.90
60033;DHT22;45905;50.570;10.428;2023-04-03T06:37:00;0.80;99.90
60033;DHT22;45905;50.570;10.428;2023-04-03T06:39:27;0.90;99.90
60033;DHT22;45905;50.570;10.428;2023-04-03T06:41:54;0.90;99.90
60033;DHT22;45905;50.570;10.428;2023-04-03T06:44:35;1.00;99.90
60033;DHT22;45905;50.570;10.428;2023-04-03T06:47:03;1.00;99.90
60033;DHT22;45905;50.570;10.428;2023-04-03T06:49:30;1.00;99.90
60033;DHT22;45905;50.570;10.428;2023-04-03T06:51:58;1.00;99.90
60033;DHT22;45905;50.570;10.428;2023-04-03T06:54:28;1.10;99.90
60033;DHT22;45905;50.570;10.428;2023-04-03T06:56:55;1.20;99.90
60033;DHT22;45905;50.570;10.428;2023-04-03T06:59:22;1.10;99.90
60033;DHT22;45905;50.570;10.428;2023-04-03T07:01:49;1.10;99.90
60033;DHT22;45905;50.570;10.428;2023-04-03T07:04:17;1.90;99.90
60033;DHT22;45905;50.570;10.428;2023-04-03T07:06:47;1.20;99.90
60033;DHT22;45905;50.570;10.428;2023-04-03T07:09:15;1.20;99.90
60033;DHT22;45905;50.570;10.428;2023-04-03T07:11:42;1.20;99.90
60033;DHT22;45905;50.570;10.428;2023-04-03T07:14:09;1.30;99.90
60033;DHT22;45905;50.570;10.428;2023-04-03T07:16:36;1.20;99.90
60033;DHT22;45905;50.570;10.428;2023-04-03T07:19:07;1.30;99.90
60033;DHT22;45905;50.570;10.428;2023-04-03T07:21:35;1.30;99.90
60033;DHT22;45905;50.570;10.428;2023-04-03T07:24:03;1.30;99.90
60033;DHT22;45905;50.570;10.428;2023-04-03T07:26:30;1.30;99.90
60033;DHT22;45905;50.570;10.428;2023-04-03T07:28:58;1.30;99.90
60033;DHT22;45905;50.570;10.428;2023-04-03T07:31:26;1.30;99.90
60033;DHT22;45905;50.570;10.428;2023-04-03T07:33:53;1.30;99.90
60033;DHT22;45905;50.570;10.428;2023-04-03T07:36:21;1.20;99.90
60033;DHT22;45905;50.570;10.428;2023-04-03T07:38:49;1.20;99.90
60033;DHT22;45905;50.570;10.428;2023-04-03T07:41:19;1.20;99.90
60033;DHT22;45905;50.570;10.428;2023-04-03T07:43:47;1.30;99.90
60033;DHT22;45905;50.570;10.428;2023-04-03T07:46:16;1.30;99.90
60033;DHT22;45905;50.570;10.428;2023-04-03T07:48:44;1.30;99.90
60033;DHT22;45905;50.570;10.428;2023-04-03T07:51:12;1.30;99.90
60033;DHT22;45905;50.570;10.428;2023-04-03T07:53:40;1.40;99.60
60033;DHT22;45905;50.570;10.428;2023-04-03T07:56:07;1.40;99.50
60033;DHT22;45905;50.570;10.428;2023-04-03T07:58:35;1.40;99.50
60033;DHT22;45905;50.570;10.428;2023-04-03T08:01:03;2.30;99.60
60033;DHT22;45905;50.570;10.428;2023-04-03T08:03:30;1.50;99.60
60033;DHT22;45905;50.570;10.428;2023-04-03T08:06:05;1.50;99.90
60033;DHT22;45905;50.570;10.428;2023-04-03T08:08:41;1.60;99.90
60033;DHT22;45905;50.570;10.428;2023-04-03T08:11:10;1.70;99.20
60033;DHT22;45905;50.570;10.428;2023-04-03T08:13:38;1.70;98.60
60033;DHT22;45905;50.570;10.428;2023-04-03T08:16:26;1.70;98.70
60033;DHT22;45905;50.570;10.428;2023-04-03T08:18:54;1.70;98.60
60033;DHT22;45905;50.570;10.428;2023-04-03T08:21:22;1.70;98.70
60033;DHT22;45905;50.570;10.428;2023-04-03T08:23:50;1.70;98.40
60033;DHT22;45905;50.570;10.428;2023-04-03T08:26:20;1.70;98.50
60033;DHT22;45905;50.570;10.428;2023-04-03T08:28:48;1.70;98.80
60033;DHT22;45905;50.570;10.428;2023-04-03T08:31:18;1.70;98.60
60033;DHT22;45905;50.570;10.428;2023-04-03T08:33:47;1.80;98.10
60033;DHT22;45905;50.570;10.428;2023-04-03T08:36:25;1.80;98.00
60033;DHT22;45905;50.570;10.428;2023-04-03T08:38:55;1.80;97.30
60033;DHT22;45905;50.570;10.428;2023-04-03T08:41:41;1.80;96.80
60033;DHT22;45905;50.570;10.428;2023-04-03T08:44:39;1.80;97.60
60033;DHT22;45905;50.570;10.428;2023-04-03T08:47:24;1.80;97.10
60033;DHT22;45905;50.570;10.428;2023-04-03T08:50:17;1.80;97.00
60033;DHT22;45905;50.570;10.428;2023-04-03T08:52:58;1.90;96.20
60033;DHT22;45905;50.570;10.428;2023-04-03T08:55:29;1.90;95.50
60033;DHT22;45905;50.570;10.428;2023-04-03T08:58:12;1.80;95.00
60033;DHT22;45905;50.570;10.428;2023-04-03T09:01:06;1.90;95.70
60033;DHT22;45905;50.570;10.428;2023-04-03T09:03:43;1.90;96.00
60033;DHT22;45905;50.570;10.428;2023-04-03T09:06:21;2.00;95.00
60033;DHT22;45905;50.570;10.428;2023-04-03T09:09:15;2.00;94.80
60033;DHT22;45905;50.570;10.428;2023-04-03T09:15:25;2.00;95.10
60033;DHT22;45905;50.570;10.428;2023-04-03T09:18:12;2.00;96.10
60033;DHT22;45905;50.570;10.428;2023-04-03T09:20:53;2.00;95.80
60033;DHT22;45905;50.570;10.428;2023-04-03T09:23:42;2.10;95.10
60033;DHT22;45905;50.570;10.428;2023-04-03T09:26:16;2.10;94.60
60033;DHT22;45905;50.570;10.428;2023-04-03T09:28:46;2.10;94.10
60033;DHT22;45905;50.570;10.428;2023-04-03T09:31:55;2.00;94.50
60033;DHT22;45905;50.570;10.428;2023-04-03T09:37:01;2.00;94.40
60033;DHT22;45905;50.570;10.428;2023-04-03T09:39:52;2.10;93.80
60033;DHT22;45905;50.570;10.428;2023-04-03T09:42:24;1.90;93.50
60033;DHT22;45905;50.570;10.428;2023-04-03T09:45:03;1.90;93.80
60033;DHT22;45905;50.570;10.428;2023-04-03T09:47:34;1.90;93.80
60033;DHT22;45905;50.570;10.428;2023-04-03T09:52:41;2.00;93.70
60033;DHT22;45905;50.570;10.428;2023-04-03T09:55:15;2.00;93.20
60033;DHT22;45905;50.570;10.428;2023-04-03T09:57:47;2.00;93.60
60033;DHT22;45905;50.570;10.428;2023-04-03T10:00:36;2.00;93.30
60033;DHT22;45905;50.570;10.428;2023-04-03T10:03:09;2.00;93.00
60033;DHT22;45905;50.570;10.428;2023-04-03T10:05:51;2.00;92.40
60033;DHT22;45905;50.570;10.428;2023-04-03T10:08:27;2.10;92.50
60033;DHT22;45905;50.570;10.428;2023-04-03T10:11:10;2.10;92.30
60033;DHT22;45905;50.570;10.428;2023-04-03T10:19:32;2.20;92.80
60033;DHT22;45905;50.570;10.428;2023-04-03T10:25:43;2.30;93.40
60033;DHT22;45905;50.570;10.428;2023-04-03T10:34:35;2.50;92.60
60033;DHT22;45905;50.570;10.428;2023-04-03T10:43:02;2.60;91.70
60033;DHT22;45905;50.570;10.428;2023-04-03T10:49:09;2.60;91.00
60033;DHT22;45905;50.570;10.428;2023-04-03T10:52:16;2.60;91.20
60033;DHT22;45905;50.570;10.428;2023-04-03T10:57:40;2.60;91.60
60033;DHT22;45905;50.570;10.428;2023-04-03T11:00:41;2.60;91.60
60033;DHT22;45905;50.570;10.428;2023-04-03T11:03:27;2.70;92.00
60033;DHT22;45905;50.570;10.428;2023-04-03T11:06:01;2.80;91.90
60033;DHT22;45905;50.570;10.428;2023-04-03T11:08:33;2.90;91.50
60033;DHT22;45905;50.570;10.428;2023-04-03T11:11:11;2.90;90.70
60033;DHT22;45905;50.570;10.428;2023-04-03T11:13:56;3.10;91.00
60033;DHT22;45905;50.570;10.428;2023-04-03T11:16:33;3.00;91.30
60033;DHT22;45905;50.570;10.428;2023-04-03T11:19:21;3.10;91.90
60033;DHT22;45905;50.570;10.428;2023-04-03T11:25:18;3.30;91.60
60033;DHT22;45905;50.570;10.428;2023-04-03T11:27:58;3.30;91.60
60033;DHT22;45905;50.570;10.428;2023-04-03T11:31:00;3.40;91.10
60033;DHT22;45905;50.570;10.428;2023-04-03T11:36:48;3.50;91.00
60033;DHT22;45905;50.570;10.428;2023-04-03T11:39:24;3.50;91.00
60033;DHT22;45905;50.570;10.428;2023-04-03T11:41:54;3.60;91.00
60033;DHT22;45905;50.570;10.428;2023-04-03T11:44:38;3.80;90.40
60033;DHT22;45905;50.570;10.428;2023-04-03T11:47:07;3.90;90.30
60033;DHT22;45905;50.570;10.428;2023-04-03T12:06:42;4.40;90.50
60033;DHT22;45905;50.570;10.428;2023-04-03T12:08:47;4.50;90.10
60033;DHT22;45905;50.570;10.428;2023-04-03T12:11:30;4.60;90.40
60033;DHT22;45905;50.570;10.428;2023-04-03T12:16:44;4.80;87.60
60033;DHT22;45905;50.570;10.428;2023-04-03T12:24:28;4.90;87.60
60033;DHT22;45905;50.570;10.428;2023-04-03T12:45:23;5.60;86.00
60033;DHT22;45905;50.570;10.428;2023-04-03T12:47:54;5.70;85.50
60033;DHT22;45905;50.570;10.428;2023-04-03T12:50:26;5.80;84.10
60033;DHT22;45905;50.570;10.428;2023-04-03T12:53:06;5.80;86.00
60033;DHT22;45905;50.570;10.428;2023-04-03T12:55:38;5.90;84.60
60033;DHT22;45905;50.570;10.428;2023-04-03T12:58:17;5.80;84.00
60033;DHT22;45905;50.570;10.428;2023-04-03T13:01:24;5.80;84.10
60033;DHT22;45905;50.570;10.428;2023-04-03T13:03:57;5.90;86.40
60033;DHT22;45905;50.570;10.428;2023-04-03T13:06:38;6.00;85.10
60033;DHT22;45905;50.570;10.428;2023-04-03T13:11:53;6.20;85.40
60033;DHT22;45905;50.570;10.428;2023-04-03T13:14:30;6.30;83.90
60033;DHT22;45905;50.570;10.428;2023-04-03T13:17:10;6.40;82.70
60033;DHT22;45905;50.570;10.428;2023-04-03T13:19:41;6.50;80.40
60033;DHT22;45905;50.570;10.428;2023-04-03T13:22:33;6.50;78.10
60033;DHT22;45905;50.570;10.428;2023-04-03T13:25:08;6.40;80.20
60033;DHT22;45905;50.570;10.428;2023-04-03T13:27:38;6.50;80.70
60033;DHT22;45905;50.570;10.428;2023-04-03T13:30:33;6.60;79.30
60033;DHT22;45905;50.570;10.428;2023-04-03T13:33:17;6.60;76.70
60033;DHT22;45905;50.570;10.428;2023-04-03T13:36:05;6.60;77.20
60033;DHT22;45905;50.570;10.428;2023-04-03T13:38:43;6.70;79.20
60033;DHT22;45905;50.570;10.428;2023-04-03T13:41:30;6.80;75.60
60033;DHT22;45905;50.570;10.428;2023-04-03T13:44:38;6.80;78.60
60033;DHT22;45905;50.570;10.428;2023-04-03T13:47:25;6.90;76.90
60033;DHT22;45905;50.570;10.428;2023-04-03T13:52:38;7.10;77.40
60033;DHT22;45905;50.570;10.428;2023-04-03T13:55:33;7.10;72.60
60033;DHT22;45905;50.570;10.428;2023-04-03T13:58:22;7.10;72.00
60033;DHT22;45905;50.570;10.428;2023-04-03T14:01:19;7.00;72.90
60033;DHT22;45905;50.570;10.428;2023-04-03T14:04:01;7.00;71.00
60033;DHT22;45905;50.570;10.428;2023-04-03T14:06:37;7.00;72.80
60033;DHT22;45905;50.570;10.428;2023-04-03T14:09:04;7.10;69.80
60033;DHT22;45905;50.570;10.428;2023-04-03T14:11:33;7.10;69.60
60033;DHT22;45905;50.570;10.428;2023-04-03T14:14:05;7.10;69.80
60033;DHT22;45905;50.570;10.428;2023-04-03T14:16:42;7.10;71.00
60033;DHT22;45905;50.570;10.428;2023-04-03T14:19:27;7.20;69.10
60033;DHT22;45905;50.570;10.428;2023-04-03T14:21:56;7.20;71.50
60033;DHT22;45905;50.570;10.428;2023-04-03T14:24:25;7.40;72.30
60033;DHT22;45905;50.570;10.428;2023-04-03T14:26:54;7.50;72.60
60033;DHT22;45905;50.570;10.428;2023-04-03T14:29:22;7.70;72.50
60033;DHT22;45905;50.570;10.428;2023-04-03T14:31:50;7.70;71.00
60033;DHT22;45905;50.570;10.428;2023-04-03T14:34:33;7.70;69.80
60033;DHT22;45905;50.570;10.428;2023-04-03T14:37:00;7.60;70.90
60033;DHT22;45905;50.570;10.428;2023-04-03T14:39:27;7.50;71.50
60033;DHT22;45905;50.570;10.428;2023-04-03T14:41:54;7.50;70.40
60033;DHT22;45905;50.570;10.428;2023-04-03T14:44:21;7.50;69.60
60033;DHT22;45905;50.570;10.428;2023-04-03T14:46:49;7.40;68.90
60033;DHT22;45905;50.570;10.428;2023-04-03T14:49:28;7.40;70.10
60033;DHT22;45905;50.570;10.428;2023-04-03T14:51:57;7.40;68.10
60033;DHT22;45905;50.570;10.428;2023-04-03T14:54:25;7.40;68.20
60033;DHT22;45905;50.570;10.428;2023-04-03T14:56:56;7.40;67.20
60033;DHT22;45905;50.570;10.428;2023-04-03T14:59:26;7.30;66.80
60033;DHT22;45905;50.570;10.428;2023-04-03T15:01:55;7.30;65.60
60033;DHT22;45905;50.570;10.428;2023-04-03T15:04:22;7.30;66.60
60033;DHT22;45905;50.570;10.428;2023-04-03T15:06:51;7.30;67.00
60033;DHT22;45905;50.570;10.428;2023-04-03T15:09:24;7.20;63.80
60033;DHT22;45905;50.570;10.428;2023-04-03T15:11:53;7.10;63.20
60033;DHT22;45905;50.570;10.428;2023-04-03T15:14:22;7.00;64.00
60033;DHT22;45905;50.570;10.428;2023-04-03T15:17:04;7.00;64.40
60033;DHT22;45905;50.570;10.428;2023-04-03T15:19:39;6.90;65.10
60033;DHT22;45905;50.570;10.428;2023-04-03T15:22:08;6.90;65.80
60033;DHT22;45905;50.570;10.428;2023-04-03T15:24:45;6.80;66.50
60033;DHT22;45905;50.570;10.428;2023-04-03T15:27:13;6.70;66.70
60033;DHT22;45905;50.570;10.428;2023-04-03T15:29:42;6.70;67.60
60033;DHT22;45905;50.570;10.428;2023-04-03T15:32:11;6.70;65.40
60033;DHT22;45905;50.570;10.428;2023-04-03T15:34:39;6.60;65.80
60033;DHT22;45905;50.570;10.428;2023-04-03T15:37:07;6.60;65.10
60033;DHT22;45905;50.570;10.428;2023-04-03T15:39:34;6.60;66.40
60033;DHT22;45905;50.570;10.428;2023-04-03T15:42:01;6.60;66.30
60033;DHT22;45905;50.570;10.428;2023-04-03T15:44:36;6.50;67.00
60033;DHT22;45905;50.570;10.428;2023-04-03T15:47:03;6.60;67.70
60033;DHT22;45905;50.570;10.428;2023-04-03T15:49:32;6.60;66.60
60033;DHT22;45905;50.570;10.428;2023-04-03T15:52:00;6.60;66.10
60033;DHT22;45905;50.570;10.428;2023-04-03T15:54:28;6.60;64.90
60033;DHT22;45905;50.570;10.428;2023-04-03T15:56:56;6.60;65.30
60033;DHT22;45905;50.570;10.428;2023-04-03T15:59:24;6.50;65.70
60033;DHT22;45905;50.570;10.428;2023-04-03T16:01:52;6.50;65.50
60033;DHT22;45905;50.570;10.428;2023-04-03T16:04:19;6.50;66.10
60033;DHT22;45905;50.570;10.428;2023-04-03T16:06:48;6.40;66.60
60033;DHT22;45905;50.570;10.428;2023-04-03T16:09:16;6.40;65.20
60033;DHT22;45905;50.570;10.428;2023-04-03T16:11:43;6.30;63.90
60033;DHT22;45905;50.570;10.428;2023-04-03T16:14:11;6.10;63.80
60033;DHT22;45905;50.570;10.428;2023-04-03T16:16:39;6.00;64.30
60033;DHT22;45905;50.570;10.428;2023-04-03T16:19:06;5.80;64.20
60033;DHT22;45905;50.570;10.428;2023-04-03T16:21:34;5.70;64.40
60033;DHT22;45905;50.570;10.428;2023-04-03T16:24:01;5.50;64.90
60033;DHT22;45905;50.570;10.428;2023-04-03T16:26:29;5.50;66.60
60033;DHT22;45905;50.570;10.428;2023-04-03T16:28:56;5.40;67.20
60033;DHT22;45905;50.570;10.428;2023-04-03T16:31:25;5.40;66.70
60033;DHT22;45905;50.570;10.428;2023-04-03T16:33:53;5.50;67.50
60033;DHT22;45905;50.570;10.428;2023-04-03T16:36:21;5.30;65.90
60033;DHT22;45905;50.570;10.428;2023-04-03T16:38:48;5.20;65.60
60033;DHT22;45905;50.570;10.428;2023-04-03T16:41:15;5.10;64.90
60033;DHT22;45905;50.570;10.428;2023-04-03T16:43:43;5.00;65.50
60033;DHT22;45905;50.570;10.428;2023-04-03T16:46:10;4.90;65.50
60033;DHT22;45905;50.570;10.428;2023-04-03T16:48:37;4.80;65.80
60033;DHT22;45905;50.570;10.428;2023-04-03T16:51:05;4.80;66.90
60033;DHT22;45905;50.570;10.428;2023-04-03T16:53:32;4.70;67.50
60033;DHT22;45905;50.570;10.428;2023-04-03T16:55:59;4.70;68.10
60033;DHT22;45905;50.570;10.428;2023-04-03T16:58:26;4.60;68.30
60033;DHT22;45905;50.570;10.428;2023-04-03T17:00:53;4.50;69.10
60033;DHT22;45905;50.570;10.428;2023-04-03T17:03:21;4.40;68.90
60033;DHT22;45905;50.570;10.428;2023-04-03T17:05:52;4.40;70.00
60033;DHT22;45905;50.570;10.428;2023-04-03T17:08:19;4.40;70.70
60033;DHT22;45905;50.570;10.428;2023-04-03T17:10:46;4.30;70.40
60033;DHT22;45905;50.570;10.428;2023-04-03T17:13:16;4.30;70.70
60033;DHT22;45905;50.570;10.428;2023-04-03T17:15:43;4.10;69.80
60033;DHT22;45905;50.570;10.428;2023-04-03T17:18:10;4.00;70.40
60033;DHT22;45905;50.570;10.428;2023-04-03T17:20:39;3.90;69.20
60033;DHT22;45905;50.570;10.428;2023-04-03T17:23:06;3.80;69.20
60033;DHT22;45905;50.570;10.428;2023-04-03T17:25:33;3.80;69.40
60033;DHT22;45905;50.570;10.428;2023-04-03T17:28:00;3.70;69.90
60033;DHT22;45905;50.570;10.428;2023-04-03T17:30:27;3.70;70.30
60033;DHT22;45905;50.570;10.428;2023-04-03T17:32:54;3.60;70.50
60033;DHT22;45905;50.570;10.428;2023-04-03T17:35:22;3.70;70.80
60033;DHT22;45905;50.570;10.428;2023-04-03T17:37:49;3.60;70.60